sensor_id;sensor_type;location;lat;lon;timestamp;P1;durP1;ratioP1;P2;durP2;ratioP2
63807;SDS011;49961;43.970;22.868;2023-04-29T00:00:24;6.67;;;4.60;;
63807;SDS011;49961;43.970;22.868;2023-04-29T00:01:24;5.93;;;3.90;;
63807;SDS011;49961;43.970;22.868;2023-04-29T00:02:25;8.93;;;4.70;;
63807;SDS011;49961;43.970;22.868;2023-04-29T00:03:27;7.20;;;4.10;;
63807;SDS011;49961;43.970;22.868;2023-04-29T00:04:29;7.28;;;4.30;;
63807;SDS011;49961;43.970;22.868;2023-04-29T00:05:29;7.40;;;4.57;;
63807;SDS011;49961;43.970;22.868;2023-04-29T00:06:30;8.63;;;4.53;;
63807;SDS011;49961;43.970;22.868;2023-04-29T00:07:30;9.07;;;4.97;;
63807;SDS011;49961;43.970;22.868;2023-04-29T00:08:33;10.45;;;5.20;;
63807;SDS011;49961;43.970;22.868;2023-04-29T00:09:34;8.63;;;5.10;;
63807;SDS011;49961;43.970;22.868;2023-04-29T00:10:35;8.03;;;5.27;;
63807;SDS011;49961;43.970;22.868;2023-04-29T00:11:35;8.87;;;4.53;;
63807;SDS011;49961;43.970;22.868;2023-04-29T00:12:36;8.90;;;4.60;;
63807;SDS011;49961;43.970;22.868;2023-04-29T00:13:36;7.07;;;4.97;;
63807;SDS011;49961;43.970;22.868;2023-04-29T00:14:39;6.82;;;4.75;;
63807;SDS011;49961;43.970;22.868;2023-04-29T00:15:42;7.85;;;4.60;;
63807;SDS011;49961;43.970;22.868;2023-04-29T00:16:42;7.27;;;4.57;;
63807;SDS011;49961;43.970;22.868;2023-04-29T00:17:43;8.67;;;4.43;;
63807;SDS011;49961;43.970;22.868;2023-04-29T00:18:44;7.45;;;4.63;;
63807;SDS011;49961;43.970;22.868;2023-04-29T00:19:44;8.80;;;4.20;;
63807;SDS011;49961;43.970;22.868;2023-04-29T00:20:45;9.30;;;5.10;;
63807;SDS011;49961;43.970;22.868;2023-04-29T00:21:45;6.27;;;4.80;;
63807;SDS011;49961;43.970;22.868;2023-04-29T00:22:46;7.30;;;4.90;;
63807;SDS011;49961;43.970;22.868;2023-04-29T00:23:46;6.47;;;3.97;;
63807;SDS011;49961;43.970;22.868;2023-04-29T00:24:47;6.37;;;3.77;;
63807;SDS011;49961;43.970;22.868;2023-04-29T00:25:47;5.93;;;3.67;;
63807;SDS011;49961;43.970;22.868;2023-04-29T00:26:47;5.70;;;3.80;;
63807;SDS011;49961;43.970;22.868;2023-04-29T00:27:48;5.27;;;3.83;;
63807;SDS011;49961;43.970;22.868;2023-04-29T00:28:48;6.50;;;3.70;;
63807;SDS011;49961;43.970;22.868;2023-04-29T00:29:48;7.27;;;3.93;;
63807;SDS011;49961;43.970;22.868;2023-04-29T00:30:49;11.33;;;4.47;;
63807;SDS011;49961;43.970;22.868;2023-04-29T00:31:50;5.33;;;3.57;;
63807;SDS011;49961;43.970;22.868;2023-04-29T00:32:50;8.77;;;3.67;;
63807;SDS011;49961;43.970;22.868;2023-04-29T00:33:51;9.50;;;4.20;;
63807;SDS011;49961;43.970;22.868;2023-04-29T00:34:51;8.83;;;4.10;;
63807;SDS011;49961;43.970;22.868;2023-04-29T00:35:52;9.73;;;3.80;;
63807;SDS011;49961;43.970;22.868;2023-04-29T00:36:52;7.60;;;4.10;;
63807;SDS011;49961;43.970;22.868;2023-04-29T00:37:52;6.27;;;4.07;;
63807;SDS011;49961;43.970;22.868;2023-04-29T00:38:53;8.70;;;3.70;;
63807;SDS011;49961;43.970;22.868;2023-04-29T00:39:53;6.30;;;3.90;;
63807;SDS011;49961;43.970;22.868;2023-04-29T00:40:54;4.73;;;3.40;;
63807;SDS011;49961;43.970;22.868;2023-04-29T00:41:54;8.10;;;3.80;;
63807;SDS011;49961;43.970;22.868;2023-04-29T00:42:55;10.13;;;4.00;;
63807;SDS011;49961;43.970;22.868;2023-04-29T00:43:56;6.13;;;3.50;;
63807;SDS011;49961;43.970;22.868;2023-04-29T00:44:57;6.57;;;3.80;;
63807;SDS011;49961;43.970;22.868;2023-04-29T00:45:57;5.93;;;3.92;;
63807;SDS011;49961;43.970;22.868;2023-04-29T00:46:58;7.73;;;3.70;;
63807;SDS011;49961;43.970;22.868;2023-04-29T00:47:59;8.15;;;3.90;;
63807;SDS011;49961;43.970;22.868;2023-04-29T00:49:00;8.60;;;3.63;;
63807;SDS011;49961;43.970;22.868;2023-04-29T00:50:00;7.10;;;3.60;;
63807;SDS011;49961;43.970;22.868;2023-04-29T00:51:01;5.53;;;3.90;;
63807;SDS011;49961;43.970;22.868;2023-04-29T00:52:03;7.78;;;3.90;;
63807;SDS011;49961;43.970;22.868;2023-04-29T00:53:03;11.00;;;4.30;;
63807;SDS011;49961;43.970;22.868;2023-04-29T00:54:04;8.57;;;3.80;;
63807;SDS011;49961;43.970;22.868;2023-04-29T00:55:05;8.37;;;4.20;;
63807;SDS011;49961;43.970;22.868;2023-04-29T00:56:07;9.07;;;4.10;;
63807;SDS011;49961;43.970;22.868;2023-04-29T00:57:09;7.03;;;3.97;;
63807;SDS011;49961;43.970;22.868;2023-04-29T00:58:09;7.20;;;3.97;;
63807;SDS011;49961;43.970;22.868;2023-04-29T00:59:11;8.80;;;4.50;;
63807;SDS011;49961;43.970;22.868;2023-04-29T01:00:11;8.77;;;3.90;;
63807;SDS011;49961;43.970;22.868;2023-04-29T01:01:13;9.30;;;3.92;;
63807;SDS011;49961;43.970;22.868;2023-04-29T01:02:13;13.77;;;4.27;;
63807;SDS011;49961;43.970;22.868;2023-04-29T01:03:14;7.27;;;3.80;;
63807;SDS011;49961;43.970;22.868;2023-04-29T01:04:15;15.37;;;4.77;;
63807;SDS011;49961;43.970;22.868;2023-04-29T01:05:16;15.83;;;5.30;;
63807;SDS011;49961;43.970;22.868;2023-04-29T01:06:25;17.97;;;4.70;;
63807;SDS011;49961;43.970;22.868;2023-04-29T01:10:27;10.83;;;4.60;;
63807;SDS011;49961;43.970;22.868;2023-04-29T01:11:34;12.20;;;4.15;;
63807;SDS011;49961;43.970;22.868;2023-04-29T01:12:45;8.88;;;4.18;;
63807;SDS011;49961;43.970;22.868;2023-04-29T01:13:50;7.63;;;3.50;;
63807;SDS011;49961;43.970;22.868;2023-04-29T01:15:04;7.53;;;3.78;;
63807;SDS011;49961;43.970;22.868;2023-04-29T01:16:22;10.00;;;4.10;;
63807;SDS011;49961;43.970;22.868;2023-04-29T01:17:29;13.45;;;4.45;;
63807;SDS011;49961;43.970;22.868;2023-04-29T01:18:38;11.88;;;4.57;;
63807;SDS011;49961;43.970;22.868;2023-04-29T01:19:45;11.73;;;4.30;;
63807;SDS011;49961;43.970;22.868;2023-04-29T01:20:49;9.57;;;4.10;;
63807;SDS011;49961;43.970;22.868;2023-04-29T01:21:50;7.55;;;3.90;;
63807;SDS011;49961;43.970;22.868;2023-04-29T01:22:50;13.07;;;3.90;;
63807;SDS011;49961;43.970;22.868;2023-04-29T01:23:51;10.97;;;3.90;;
63807;SDS011;49961;43.970;22.868;2023-04-29T01:24:55;6.75;;;3.72;;
63807;SDS011;49961;43.970;22.868;2023-04-29T01:25:55;8.17;;;4.13;;
63807;SDS011;49961;43.970;22.868;2023-04-29T01:26:58;6.57;;;3.85;;
63807;SDS011;49961;43.970;22.868;2023-04-29T01:32:17;7.63;;;4.05;;
63807;SDS011;49961;43.970;22.868;2023-04-29T01:34:02;6.00;;;3.60;;
63807;SDS011;49961;43.970;22.868;2023-04-29T01:35:10;5.53;;;3.45;;
63807;SDS011;49961;43.970;22.868;2023-04-29T01:40:27;7.28;;;4.15;;
63807;SDS011;49961;43.970;22.868;2023-04-29T01:41:49;11.45;;;4.93;;
63807;SDS011;49961;43.970;22.868;2023-04-29T01:43:00;7.95;;;4.25;;
63807;SDS011;49961;43.970;22.868;2023-04-29T01:44:02;6.63;;;4.00;;
63807;SDS011;49961;43.970;22.868;2023-04-29T01:45:05;8.25;;;4.25;;
63807;SDS011;49961;43.970;22.868;2023-04-29T01:46:09;6.90;;;3.97;;
63807;SDS011;49961;43.970;22.868;2023-04-29T01:47:12;5.60;;;3.58;;
63807;SDS011;49961;43.970;22.868;2023-04-29T01:48:13;6.55;;;4.03;;
63807;SDS011;49961;43.970;22.868;2023-04-29T01:49:14;6.23;;;3.97;;
63807;SDS011;49961;43.970;22.868;2023-04-29T01:50:14;7.10;;;3.90;;
63807;SDS011;49961;43.970;22.868;2023-04-29T01:51:15;6.13;;;3.87;;
63807;SDS011;49961;43.970;22.868;2023-04-29T01:52:15;6.10;;;4.17;;
63807;SDS011;49961;43.970;22.868;2023-04-29T01:53:16;7.00;;;4.23;;
63807;SDS011;49961;43.970;22.868;2023-04-29T01:54:16;6.90;;;4.30;;
63807;SDS011;49961;43.970;22.868;2023-04-29T01:55:17;6.10;;;4.17;;
63807;SDS011;49961;43.970;22.868;2023-04-29T01:56:18;8.03;;;4.03;;
63807;SDS011;49961;43.970;22.868;2023-04-29T01:57:18;7.70;;;4.30;;
63807;SDS011;49961;43.970;22.868;2023-04-29T01:58:18;6.37;;;4.40;;
63807;SDS011;49961;43.970;22.868;2023-04-29T01:59:19;7.07;;;4.17;;
63807;SDS011;49961;43.970;22.868;2023-04-29T02:00:20;10.43;;;4.00;;
63807;SDS011;49961;43.970;22.868;2023-04-29T02:01:20;7.67;;;4.20;;
63807;SDS011;49961;43.970;22.868;2023-04-29T02:02:21;10.93;;;4.40;;
63807;SDS011;49961;43.970;22.868;2023-04-29T02:03:22;10.13;;;4.80;;
63807;SDS011;49961;43.970;22.868;2023-04-29T02:04:23;10.83;;;4.30;;
63807;SDS011;49961;43.970;22.868;2023-04-29T02:05:24;8.10;;;4.75;;
63807;SDS011;49961;43.970;22.868;2023-04-29T02:06:24;8.83;;;4.20;;
63807;SDS011;49961;43.970;22.868;2023-04-29T02:07:25;8.40;;;4.10;;
63807;SDS011;49961;43.970;22.868;2023-04-29T02:08:26;9.17;;;4.80;;
63807;SDS011;49961;43.970;22.868;2023-04-29T02:09:26;9.07;;;4.17;;
63807;SDS011;49961;43.970;22.868;2023-04-29T02:10:27;8.87;;;4.10;;
63807;SDS011;49961;43.970;22.868;2023-04-29T02:11:28;8.00;;;4.63;;
63807;SDS011;49961;43.970;22.868;2023-04-29T02:12:28;5.87;;;3.90;;
63807;SDS011;49961;43.970;22.868;2023-04-29T02:13:28;5.77;;;4.10;;
63807;SDS011;49961;43.970;22.868;2023-04-29T02:14:29;6.60;;;3.67;;
63807;SDS011;49961;43.970;22.868;2023-04-29T02:15:30;6.20;;;4.10;;
63807;SDS011;49961;43.970;22.868;2023-04-29T02:16:31;7.13;;;3.90;;
63807;SDS011;49961;43.970;22.868;2023-04-29T02:17:32;10.87;;;4.60;;
63807;SDS011;49961;43.970;22.868;2023-04-29T02:18:33;5.95;;;3.90;;
63807;SDS011;49961;43.970;22.868;2023-04-29T02:19:33;7.40;;;4.37;;
63807;SDS011;49961;43.970;22.868;2023-04-29T02:20:34;10.93;;;4.43;;
63807;SDS011;49961;43.970;22.868;2023-04-29T02:21:34;8.43;;;4.20;;
63807;SDS011;49961;43.970;22.868;2023-04-29T02:22:35;7.00;;;4.40;;
63807;SDS011;49961;43.970;22.868;2023-04-29T02:23:35;8.47;;;4.40;;
63807;SDS011;49961;43.970;22.868;2023-04-29T02:24:36;7.13;;;4.00;;
63807;SDS011;49961;43.970;22.868;2023-04-29T02:25:37;6.87;;;4.00;;
63807;SDS011;49961;43.970;22.868;2023-04-29T02:26:37;7.17;;;3.97;;
63807;SDS011;49961;43.970;22.868;2023-04-29T02:27:38;9.50;;;4.20;;
63807;SDS011;49961;43.970;22.868;2023-04-29T02:28:38;9.40;;;4.23;;
63807;SDS011;49961;43.970;22.868;2023-04-29T02:29:38;6.27;;;3.80;;
63807;SDS011;49961;43.970;22.868;2023-04-29T02:30:39;8.03;;;4.07;;
63807;SDS011;49961;43.970;22.868;2023-04-29T02:31:39;6.07;;;3.87;;
63807;SDS011;49961;43.970;22.868;2023-04-29T02:32:40;7.23;;;3.97;;
63807;SDS011;49961;43.970;22.868;2023-04-29T02:33:40;10.83;;;4.60;;
63807;SDS011;49961;43.970;22.868;2023-04-29T02:34:40;11.90;;;4.27;;
63807;SDS011;49961;43.970;22.868;2023-04-29T02:35:41;8.73;;;4.03;;
63807;SDS011;49961;43.970;22.868;2023-04-29T02:36:41;8.53;;;4.07;;
63807;SDS011;49961;43.970;22.868;2023-04-29T02:37:42;6.50;;;3.80;;
63807;SDS011;49961;43.970;22.868;2023-04-29T02:38:42;6.73;;;4.07;;
63807;SDS011;49961;43.970;22.868;2023-04-29T02:39:43;5.93;;;3.67;;
63807;SDS011;49961;43.970;22.868;2023-04-29T02:40:43;6.30;;;4.10;;
63807;SDS011;49961;43.970;22.868;2023-04-29T02:41:45;7.50;;;4.00;;
63807;SDS011;49961;43.970;22.868;2023-04-29T02:42:45;6.33;;;3.93;;
63807;SDS011;49961;43.970;22.868;2023-04-29T02:43:45;9.20;;;3.97;;
63807;SDS011;49961;43.970;22.868;2023-04-29T02:44:47;5.93;;;3.80;;
63807;SDS011;49961;43.970;22.868;2023-04-29T02:45:48;5.63;;;4.07;;
63807;SDS011;49961;43.970;22.868;2023-04-29T02:46:49;5.10;;;3.63;;
63807;SDS011;49961;43.970;22.868;2023-04-29T02:47:49;5.53;;;3.97;;
63807;SDS011;49961;43.970;22.868;2023-04-29T02:48:50;6.93;;;3.70;;
63807;SDS011;49961;43.970;22.868;2023-04-29T02:49:50;6.40;;;3.70;;
63807;SDS011;49961;43.970;22.868;2023-04-29T02:50:50;4.43;;;3.57;;
63807;SDS011;49961;43.970;22.868;2023-04-29T02:51:51;5.33;;;3.70;;
63807;SDS011;49961;43.970;22.868;2023-04-29T02:52:52;8.20;;;4.40;;
63807;SDS011;49961;43.970;22.868;2023-04-29T02:53:52;10.90;;;4.37;;
63807;SDS011;49961;43.970;22.868;2023-04-29T02:54:53;7.07;;;4.17;;
63807;SDS011;49961;43.970;22.868;2023-04-29T02:55:53;7.70;;;4.10;;
63807;SDS011;49961;43.970;22.868;2023-04-29T02:56:54;6.55;;;4.00;;
63807;SDS011;49961;43.970;22.868;2023-04-29T02:57:55;5.60;;;3.70;;
63807;SDS011;49961;43.970;22.868;2023-04-29T02:58:55;7.00;;;4.10;;
63807;SDS011;49961;43.970;22.868;2023-04-29T02:59:55;6.30;;;3.80;;
63807;SDS011;49961;43.970;22.868;2023-04-29T03:00:56;6.37;;;4.20;;
63807;SDS011;49961;43.970;22.868;2023-04-29T03:01:56;7.73;;;4.33;;
63807;SDS011;49961;43.970;22.868;2023-04-29T03:02:57;7.97;;;4.10;;
63807;SDS011;49961;43.970;22.868;2023-04-29T03:03:57;9.77;;;4.27;;
63807;SDS011;49961;43.970;22.868;2023-04-29T03:04:58;10.33;;;4.57;;
63807;SDS011;49961;43.970;22.868;2023-04-29T03:05:58;9.30;;;4.73;;
63807;SDS011;49961;43.970;22.868;2023-04-29T03:06:59;8.80;;;4.60;;
63807;SDS011;49961;43.970;22.868;2023-04-29T03:07:59;6.87;;;4.13;;
63807;SDS011;49961;43.970;22.868;2023-04-29T03:09:00;9.13;;;4.60;;
63807;SDS011;49961;43.970;22.868;2023-04-29T03:10:00;7.40;;;4.50;;
63807;SDS011;49961;43.970;22.868;2023-04-29T03:11:01;5.80;;;3.80;;
63807;SDS011;49961;43.970;22.868;2023-04-29T03:12:01;9.83;;;4.43;;
63807;SDS011;49961;43.970;22.868;2023-04-29T03:13:02;8.23;;;4.13;;
63807;SDS011;49961;43.970;22.868;2023-04-29T03:14:02;8.57;;;4.20;;
63807;SDS011;49961;43.970;22.868;2023-04-29T03:15:03;6.67;;;4.30;;
63807;SDS011;49961;43.970;22.868;2023-04-29T03:16:04;6.97;;;4.00;;
63807;SDS011;49961;43.970;22.868;2023-04-29T03:17:05;5.93;;;3.80;;
63807;SDS011;49961;43.970;22.868;2023-04-29T03:18:06;7.63;;;4.10;;
63807;SDS011;49961;43.970;22.868;2023-04-29T03:19:06;5.70;;;3.90;;
63807;SDS011;49961;43.970;22.868;2023-04-29T03:20:07;7.00;;;4.10;;
63807;SDS011;49961;43.970;22.868;2023-04-29T03:21:09;7.18;;;4.05;;
63807;SDS011;49961;43.970;22.868;2023-04-29T03:22:10;6.67;;;4.07;;
63807;SDS011;49961;43.970;22.868;2023-04-29T03:23:10;8.03;;;4.10;;
63807;SDS011;49961;43.970;22.868;2023-04-29T03:24:11;5.07;;;4.13;;
63807;SDS011;49961;43.970;22.868;2023-04-29T03:25:11;6.43;;;4.13;;
63807;SDS011;49961;43.970;22.868;2023-04-29T03:26:12;7.10;;;4.30;;
63807;SDS011;49961;43.970;22.868;2023-04-29T03:27:12;7.37;;;3.87;;
63807;SDS011;49961;43.970;22.868;2023-04-29T03:28:13;4.93;;;4.00;;
63807;SDS011;49961;43.970;22.868;2023-04-29T03:29:14;6.10;;;4.23;;
63807;SDS011;49961;43.970;22.868;2023-04-29T03:30:14;6.37;;;4.17;;
63807;SDS011;49961;43.970;22.868;2023-04-29T03:31:15;10.30;;;4.57;;
63807;SDS011;49961;43.970;22.868;2023-04-29T03:32:16;6.55;;;4.50;;
63807;SDS011;49961;43.970;22.868;2023-04-29T03:33:16;9.47;;;4.70;;
63807;SDS011;49961;43.970;22.868;2023-04-29T03:34:17;8.27;;;4.47;;
63807;SDS011;49961;43.970;22.868;2023-04-29T03:35:17;9.27;;;4.90;;
63807;SDS011;49961;43.970;22.868;2023-04-29T03:36:18;7.47;;;4.87;;
63807;SDS011;49961;43.970;22.868;2023-04-29T03:37:18;8.67;;;4.20;;
63807;SDS011;49961;43.970;22.868;2023-04-29T03:38:19;7.40;;;4.17;;
63807;SDS011;49961;43.970;22.868;2023-04-29T03:39:19;8.87;;;4.57;;
63807;SDS011;49961;43.970;22.868;2023-04-29T03:40:20;13.10;;;4.43;;
63807;SDS011;49961;43.970;22.868;2023-04-29T03:41:20;6.23;;;4.57;;
63807;SDS011;49961;43.970;22.868;2023-04-29T03:42:23;5.55;;;3.90;;
63807;SDS011;49961;43.970;22.868;2023-04-29T03:43:23;6.10;;;4.40;;
63807;SDS011;49961;43.970;22.868;2023-04-29T03:44:24;7.27;;;4.40;;
63807;SDS011;49961;43.970;22.868;2023-04-29T03:45:25;9.40;;;4.30;;
63807;SDS011;49961;43.970;22.868;2023-04-29T03:46:26;7.43;;;3.87;;
63807;SDS011;49961;43.970;22.868;2023-04-29T03:47:26;5.10;;;4.00;;
63807;SDS011;49961;43.970;22.868;2023-04-29T03:48:27;7.03;;;3.80;;
63807;SDS011;49961;43.970;22.868;2023-04-29T03:49:27;6.77;;;3.90;;
63807;SDS011;49961;43.970;22.868;2023-04-29T03:50:28;5.87;;;3.90;;
63807;SDS011;49961;43.970;22.868;2023-04-29T03:51:29;7.32;;;4.18;;
63807;SDS011;49961;43.970;22.868;2023-04-29T03:52:29;7.40;;;4.17;;
63807;SDS011;49961;43.970;22.868;2023-04-29T03:53:29;7.03;;;4.20;;
63807;SDS011;49961;43.970;22.868;2023-04-29T03:54:30;9.30;;;4.60;;
63807;SDS011;49961;43.970;22.868;2023-04-29T03:55:31;7.93;;;4.40;;
63807;SDS011;49961;43.970;22.868;2023-04-29T03:56:31;7.00;;;4.10;;
63807;SDS011;49961;43.970;22.868;2023-04-29T03:57:32;7.10;;;3.80;;
63807;SDS011;49961;43.970;22.868;2023-04-29T03:58:32;7.40;;;4.40;;
63807;SDS011;49961;43.970;22.868;2023-04-29T03:59:32;6.03;;;4.13;;
63807;SDS011;49961;43.970;22.868;2023-04-29T04:00:33;8.00;;;4.87;;
63807;SDS011;49961;43.970;22.868;2023-04-29T04:01:33;6.50;;;4.83;;
63807;SDS011;49961;43.970;22.868;2023-04-29T04:02:34;6.60;;;4.80;;
63807;SDS011;49961;43.970;22.868;2023-04-29T04:03:35;7.83;;;4.13;;
63807;SDS011;49961;43.970;22.868;2023-04-29T04:04:35;5.97;;;4.40;;
63807;SDS011;49961;43.970;22.868;2023-04-29T04:05:36;8.73;;;5.17;;
63807;SDS011;49961;43.970;22.868;2023-04-29T04:06:36;9.03;;;5.40;;
63807;SDS011;49961;43.970;22.868;2023-04-29T04:07:36;8.13;;;5.53;;
63807;SDS011;49961;43.970;22.868;2023-04-29T04:08:37;8.40;;;6.00;;
63807;SDS011;49961;43.970;22.868;2023-04-29T04:09:37;7.63;;;5.70;;
63807;SDS011;49961;43.970;22.868;2023-04-29T04:10:37;8.77;;;5.60;;
63807;SDS011;49961;43.970;22.868;2023-04-29T04:11:38;9.80;;;6.63;;
63807;SDS011;49961;43.970;22.868;2023-04-29T04:12:38;8.73;;;5.70;;
63807;SDS011;49961;43.970;22.868;2023-04-29T04:13:39;10.47;;;6.00;;
63807;SDS011;49961;43.970;22.868;2023-04-29T04:14:42;9.33;;;6.47;;
63807;SDS011;49961;43.970;22.868;2023-04-29T04:15:47;9.93;;;6.17;;
63807;SDS011;49961;43.970;22.868;2023-04-29T04:16:48;8.07;;;6.13;;
63807;SDS011;49961;43.970;22.868;2023-04-29T04:17:49;9.70;;;6.30;;
63807;SDS011;49961;43.970;22.868;2023-04-29T04:18:50;12.40;;;6.27;;
63807;SDS011;49961;43.970;22.868;2023-04-29T04:19:50;10.97;;;7.03;;
63807;SDS011;49961;43.970;22.868;2023-04-29T04:20:51;11.23;;;6.60;;
63807;SDS011;49961;43.970;22.868;2023-04-29T04:21:51;17.60;;;6.77;;
63807;SDS011;49961;43.970;22.868;2023-04-29T04:22:52;13.83;;;6.80;;
63807;SDS011;49961;43.970;22.868;2023-04-29T04:23:53;15.27;;;6.40;;
63807;SDS011;49961;43.970;22.868;2023-04-29T04:24:54;14.00;;;6.90;;
63807;SDS011;49961;43.970;22.868;2023-04-29T04:25:54;10.80;;;5.90;;
63807;SDS011;49961;43.970;22.868;2023-04-29T04:26:55;13.73;;;6.63;;
63807;SDS011;49961;43.970;22.868;2023-04-29T04:27:55;12.33;;;6.00;;
63807;SDS011;49961;43.970;22.868;2023-04-29T04:28:55;9.83;;;6.07;;
63807;SDS011;49961;43.970;22.868;2023-04-29T04:29:56;9.67;;;6.27;;
63807;SDS011;49961;43.970;22.868;2023-04-29T04:30:56;11.70;;;6.10;;
63807;SDS011;49961;43.970;22.868;2023-04-29T04:31:57;15.97;;;6.20;;
63807;SDS011;49961;43.970;22.868;2023-04-29T04:32:58;9.30;;;6.83;;
63807;SDS011;49961;43.970;22.868;2023-04-29T04:33:58;13.97;;;6.60;;
63807;SDS011;49961;43.970;22.868;2023-04-29T04:34:58;9.60;;;6.30;;
63807;SDS011;49961;43.970;22.868;2023-04-29T04:35:59;9.53;;;6.13;;
63807;SDS011;49961;43.970;22.868;2023-04-29T04:36:59;10.53;;;6.30;;
63807;SDS011;49961;43.970;22.868;2023-04-29T04:38:00;11.40;;;6.50;;
63807;SDS011;49961;43.970;22.868;2023-04-29T04:39:00;10.87;;;6.97;;
63807;SDS011;49961;43.970;22.868;2023-04-29T04:40:01;9.23;;;6.70;;
63807;SDS011;49961;43.970;22.868;2023-04-29T04:41:01;9.60;;;6.53;;
63807;SDS011;49961;43.970;22.868;2023-04-29T04:42:06;13.13;;;7.07;;
63807;SDS011;49961;43.970;22.868;2023-04-29T04:43:06;12.37;;;7.07;;
63807;SDS011;49961;43.970;22.868;2023-04-29T04:44:07;13.27;;;7.17;;
63807;SDS011;49961;43.970;22.868;2023-04-29T04:45:08;13.10;;;7.70;;
63807;SDS011;49961;43.970;22.868;2023-04-29T04:46:11;12.17;;;7.33;;
63807;SDS011;49961;43.970;22.868;2023-04-29T04:47:12;11.57;;;6.97;;
63807;SDS011;49961;43.970;22.868;2023-04-29T04:48:12;10.33;;;6.80;;
63807;SDS011;49961;43.970;22.868;2023-04-29T04:49:13;11.73;;;7.23;;
63807;SDS011;49961;43.970;22.868;2023-04-29T04:50:13;14.37;;;7.40;;
63807;SDS011;49961;43.970;22.868;2023-04-29T04:51:14;12.57;;;7.40;;
63807;SDS011;49961;43.970;22.868;2023-04-29T04:52:14;10.57;;;7.50;;
63807;SDS011;49961;43.970;22.868;2023-04-29T04:53:15;11.67;;;7.23;;
63807;SDS011;49961;43.970;22.868;2023-04-29T04:54:16;12.63;;;7.50;;
63807;SDS011;49961;43.970;22.868;2023-04-29T04:55:16;9.63;;;7.03;;
63807;SDS011;49961;43.970;22.868;2023-04-29T04:56:17;13.17;;;7.27;;
63807;SDS011;49961;43.970;22.868;2023-04-29T04:57:17;8.70;;;6.77;;
63807;SDS011;49961;43.970;22.868;2023-04-29T04:58:17;13.13;;;6.47;;
63807;SDS011;49961;43.970;22.868;2023-04-29T04:59:18;18.00;;;6.73;;
63807;SDS011;49961;43.970;22.868;2023-04-29T05:00:18;13.93;;;6.50;;
63807;SDS011;49961;43.970;22.868;2023-04-29T05:01:19;11.70;;;6.43;;
63807;SDS011;49961;43.970;22.868;2023-04-29T05:02:20;10.23;;;6.83;;
63807;SDS011;49961;43.970;22.868;2023-04-29T05:03:20;11.00;;;6.53;;
63807;SDS011;49961;43.970;22.868;2023-04-29T05:04:21;10.53;;;6.63;;
63807;SDS011;49961;43.970;22.868;2023-04-29T05:05:21;10.17;;;6.50;;
63807;SDS011;49961;43.970;22.868;2023-04-29T05:06:22;10.50;;;6.83;;
63807;SDS011;49961;43.970;22.868;2023-04-29T05:07:22;9.23;;;6.60;;
63807;SDS011;49961;43.970;22.868;2023-04-29T05:08:23;12.43;;;6.00;;
63807;SDS011;49961;43.970;22.868;2023-04-29T05:09:24;9.80;;;6.53;;
63807;SDS011;49961;43.970;22.868;2023-04-29T05:10:25;12.00;;;6.80;;
63807;SDS011;49961;43.970;22.868;2023-04-29T05:11:26;7.93;;;6.20;;
63807;SDS011;49961;43.970;22.868;2023-04-29T05:12:27;9.27;;;6.30;;
63807;SDS011;49961;43.970;22.868;2023-04-29T05:13:29;10.00;;;6.37;;
63807;SDS011;49961;43.970;22.868;2023-04-29T05:14:30;9.67;;;6.37;;
63807;SDS011;49961;43.970;22.868;2023-04-29T05:15:30;13.77;;;6.53;;
63807;SDS011;49961;43.970;22.868;2023-04-29T05:16:31;13.23;;;5.90;;
63807;SDS011;49961;43.970;22.868;2023-04-29T05:17:31;10.37;;;6.47;;
63807;SDS011;49961;43.970;22.868;2023-04-29T05:18:34;9.03;;;6.23;;
63807;SDS011;49961;43.970;22.868;2023-04-29T05:19:34;10.17;;;6.20;;
63807;SDS011;49961;43.970;22.868;2023-04-29T05:20:35;8.10;;;6.33;;
63807;SDS011;49961;43.970;22.868;2023-04-29T05:21:36;10.30;;;6.77;;
63807;SDS011;49961;43.970;22.868;2023-04-29T05:22:36;11.00;;;6.37;;
63807;SDS011;49961;43.970;22.868;2023-04-29T05:23:37;9.13;;;6.03;;
63807;SDS011;49961;43.970;22.868;2023-04-29T05:24:37;9.20;;;6.27;;
63807;SDS011;49961;43.970;22.868;2023-04-29T05:25:37;8.70;;;6.20;;
63807;SDS011;49961;43.970;22.868;2023-04-29T05:26:38;8.70;;;6.27;;
63807;SDS011;49961;43.970;22.868;2023-04-29T05:27:38;8.03;;;6.00;;
63807;SDS011;49961;43.970;22.868;2023-04-29T05:28:39;8.43;;;5.83;;
63807;SDS011;49961;43.970;22.868;2023-04-29T05:29:39;9.13;;;5.97;;
63807;SDS011;49961;43.970;22.868;2023-04-29T05:30:40;10.47;;;6.27;;
63807;SDS011;49961;43.970;22.868;2023-04-29T05:31:40;8.53;;;6.03;;
63807;SDS011;49961;43.970;22.868;2023-04-29T05:32:41;8.10;;;6.03;;
63807;SDS011;49961;43.970;22.868;2023-04-29T05:33:42;9.60;;;6.60;;
63807;SDS011;49961;43.970;22.868;2023-04-29T05:34:42;8.53;;;5.97;;
63807;SDS011;49961;43.970;22.868;2023-04-29T05:35:43;8.97;;;6.37;;
63807;SDS011;49961;43.970;22.868;2023-04-29T05:36:44;9.73;;;5.97;;
63807;SDS011;49961;43.970;22.868;2023-04-29T05:37:44;8.00;;;5.70;;
63807;SDS011;49961;43.970;22.868;2023-04-29T05:38:45;8.50;;;6.10;;
63807;SDS011;49961;43.970;22.868;2023-04-29T05:39:45;9.83;;;6.40;;
63807;SDS011;49961;43.970;22.868;2023-04-29T05:40:45;9.80;;;5.73;;
63807;SDS011;49961;43.970;22.868;2023-04-29T05:41:48;9.40;;;6.20;;
63807;SDS011;49961;43.970;22.868;2023-04-29T05:42:49;7.00;;;5.57;;
63807;SDS011;49961;43.970;22.868;2023-04-29T05:43:50;8.43;;;5.93;;
63807;SDS011;49961;43.970;22.868;2023-04-29T05:44:50;8.87;;;5.57;;
63807;SDS011;49961;43.970;22.868;2023-04-29T05:45:51;8.30;;;5.87;;
63807;SDS011;49961;43.970;22.868;2023-04-29T05:46:51;8.87;;;6.17;;
63807;SDS011;49961;43.970;22.868;2023-04-29T05:47:51;9.47;;;6.23;;
63807;SDS011;49961;43.970;22.868;2023-04-29T05:48:52;9.13;;;6.43;;
63807;SDS011;49961;43.970;22.868;2023-04-29T05:49:52;11.00;;;6.20;;
63807;SDS011;49961;43.970;22.868;2023-04-29T05:50:53;10.07;;;6.23;;
63807;SDS011;49961;43.970;22.868;2023-04-29T05:51:53;11.10;;;6.73;;
63807;SDS011;49961;43.970;22.868;2023-04-29T05:52:54;8.23;;;5.73;;
63807;SDS011;49961;43.970;22.868;2023-04-29T05:53:55;7.73;;;6.03;;
63807;SDS011;49961;43.970;22.868;2023-04-29T05:54:55;8.27;;;6.20;;
63807;SDS011;49961;43.970;22.868;2023-04-29T05:55:56;9.00;;;5.67;;
63807;SDS011;49961;43.970;22.868;2023-04-29T05:56:57;8.63;;;6.00;;
63807;SDS011;49961;43.970;22.868;2023-04-29T05:57:58;8.50;;;6.03;;
63807;SDS011;49961;43.970;22.868;2023-04-29T05:58:58;9.47;;;5.97;;
63807;SDS011;49961;43.970;22.868;2023-04-29T05:59:59;8.07;;;6.60;;
63807;SDS011;49961;43.970;22.868;2023-04-29T06:00:59;9.57;;;6.30;;
63807;SDS011;49961;43.970;22.868;2023-04-29T06:02:00;9.67;;;6.20;;
63807;SDS011;49961;43.970;22.868;2023-04-29T06:03:00;11.33;;;6.17;;
63807;SDS011;49961;43.970;22.868;2023-04-29T06:04:01;8.97;;;6.23;;
63807;SDS011;49961;43.970;22.868;2023-04-29T06:05:01;11.00;;;6.23;;
63807;SDS011;49961;43.970;22.868;2023-04-29T06:06:01;7.50;;;5.73;;
63807;SDS011;49961;43.970;22.868;2023-04-29T06:07:02;7.97;;;5.40;;
63807;SDS011;49961;43.970;22.868;2023-04-29T06:08:04;8.13;;;5.73;;
63807;SDS011;49961;43.970;22.868;2023-04-29T06:09:05;10.83;;;6.13;;
63807;SDS011;49961;43.970;22.868;2023-04-29T06:10:06;8.13;;;5.40;;
63807;SDS011;49961;43.970;22.868;2023-04-29T06:11:07;8.97;;;5.53;;
63807;SDS011;49961;43.970;22.868;2023-04-29T06:12:07;8.77;;;6.10;;
63807;SDS011;49961;43.970;22.868;2023-04-29T06:13:08;8.47;;;6.03;;